Pacifica, California
Current Conditions -  °F | °C
As of 4:56 AM on Monday 22 Dec 2014 (Local Time) from KSFO Reporting Station
Few Clouds Few Clouds  
Wind Chill: 57°   Ceiling: Unl
Heat Index: 57°   Visibility: 10mi
Dew Point: 57°   Wind: 5mph
Humidity: 100%   Direction: 250°WSW
Pressure: 30.26"   Gusts: NA
Location:  37.64°N, 122.49°W
Report Text: KSFO 221256Z 25004KT 10SM FEW006 14/14 A3026 RMK AO2 SLP247 T01390139
Loading
Personal Weather Stations






























Interactive Weather Map New forecast layout! Learn more

10-Day Weather Forecast

Advertisements
Track Severe Weather on mobile